Архив погоды в Биробиджане

Метеограмма Биробиджан
Среда, 23 Августа
Время местн. Темп Ветер Видим Явления Облачность нижн/средн/верх Атм. давл. Влжн Точка росы ВНГО R Сост. почвы Tg s
Напр Скр Прв ур.ст ур.м изм
16:00 +24.5° З 4 - 4 км дымка облачно 746 753 -1 53% +14.4° 1 км - - - -
13:00 +24.5° З 5 - 4 км дымка облачно 747 754 -0.9 49% +13.1° более 2.5 км - - - -
10:00 +19.1° Ю 1 - 4 км дымка облачно 748 755 -0.2 76% +14.8° более 2.5 км - - - -
07:00 +13.1° штиль 0 - 4 км дымка ясно 748 755 +0.5 100% +13.1° более 2.5 км 0 Влажная (без луж) +13° -
04:00 +14° штиль 0 - 20 км - ясно 748 755 +0.3 99% +13.9° более 2.5 км - - - -
01:00 +16° С-В 1 - 20 км - ясно 747 754 +0.4 95% +15.2° более 2.5 км - - - -
Вторник, 22 Августа
Время местн. Темп Ветер Видим Явления Облачность нижн/средн/верх Атм. давл. Влжн Точка росы ВНГО R Сост. почвы Tg s
Напр Скр Прв ур.ст ур.м изм
22:00 +18.7° З,Ю-З 1 - 20 км - переменная облачность 747 754 +0.8 92% +17.3° более 2.5 км - - - -
19:00 +26.3° З 2 - 20 км - переменная облачность 746 753 +0.5 53% +16° 1 км 0.5 - - -
16:00 +27.6° Ю-З 2 - 20 км - переменная облачность 746 752 -1.1 60% +19.2° 1 км - - - -
13:00 +23.3° Ю,Ю-З 2 - 10 км - преимущественно облачно 747 754 -0.3 82% +20.1° 600 м - - - -
10:00 +20.9° С-З 1 - 2 км дымка {ливневые осадки, морось} облачно 747 754 0 89% +19° 600 м - - - -
07:00 +18.5° С 1 - 2 км дымка облачно 747 754 -0.1 99% +18.3° 600 м 0 Влажная (без луж) +17° -
04:00 +17.2° штиль 0 - 20 км поземный туман клочками переменная облачность 747 754 -0.6 99% +17° более 2.5 км - - - -
01:00 +18.8° штиль 0 - 20 км - переменная облачность 748 755 -0.5 91% +17.3° более 2.5 км - - - -
Понедельник, 21 Августа
Время местн. Темп Ветер Видим Явления Облачность нижн/средн/верх Атм. давл. Влжн Точка росы ВНГО R Сост. почвы Tg s
Напр Скр Прв ур.ст ур.м изм
22:00 +19.5° штиль 0 - 20 км - переменная облачность 748 755 +0.5 93% +18.3° более 2.5 км - - - -
19:00 +27.3° Ю,Ю-В 2 - 20 км - незначительная облачность 747 754 -1.1 62% +19.4° 1.5 км 0 - - -
16:00 +28.3° В,Ю-В 3 - более 50 км - переменная облачность 749 755 -1.3 55% +18.5° 1 км - - - -
13:00 +25.7° В 2 - 20 км - переменная облачность 750 757 -1.1 71% +20.1° 1 км - - - -
10:00 +20.6° В,С-В 2 - 4 км дымка {туман} преимущественно облачно 751 758 +0.1 98% +20.3° 600 м - - - -
07:00 +17.5° штиль 0 - 500 м туман усиливается, небо видно облачно 751 758 +0.2 99% +17.4° 1 км 0 Влажная (без луж) +16° -
04:00 +17° штиль 0 - 20 км - ясно 751 758 -0.2 99% +16.9° более 2.5 км - - - -
01:00 +18.8° штиль 0 - 20 км - ясно 751 758 +0.2 99% +18.7° более 2.5 км - - - -
Воскресенье, 20 Августа
Время местн. Темп Ветер Видим Явления Облачность нижн/средн/верх Атм. давл. Влжн Точка росы ВНГО R Сост. почвы Tg s
Напр Скр Прв ур.ст ур.м изм
22:00 +22.2° Ю,Ю-В 1 - 20 км - ясно 751 758 +0.3 86% +19.8° более 2.5 км - - - -
19:00 +28.7° Ю-З 2 - 20 км - переменная облачность 750 757 -0.2 59% +20° более 2.5 км 0 - - -
16:00 +30.8° Ю,Ю-З 3 - более 50 км - преимущественно облачно 751 757 -0.8 49% +18.7° 1 км - - - -
13:00 +29.9° Ю-З 3 - более 50 км - облачно с прояснениями 751 758 -0.8 55% +19.8° 1 км - - - -